createdAt,value
2018-12-10T18:54:52.271Z,17.87
2018-12-10T18:57:21.290Z,14.50
2018-12-10T18:59:50.178Z,16.10
2018-12-10T19:02:18.872Z,13.63
2018-12-10T19:04:47.395Z,12.77
2018-12-10T19:07:16.254Z,17.97
2018-12-10T19:09:44.755Z,9.67
2018-12-10T19:12:14.197Z,16.77
2018-12-10T19:14:43.586Z,12.87
2018-12-10T19:17:12.701Z,12.13
2018-12-10T19:19:45.758Z,13.73
2018-12-10T19:22:21.070Z,11.50
2018-12-10T19:24:49.987Z,12.07
2018-12-10T19:27:18.558Z,10.13
2018-12-10T19:29:47.279Z,10.33
2018-12-10T19:32:17.467Z,11.77
2018-12-10T19:34:46.397Z,12.83
2018-12-10T19:37:15.225Z,11.87
2018-12-10T19:39:43.813Z,13.73
2018-12-10T19:42:12.396Z,9.90
2018-12-10T19:44:41.562Z,15.80
2018-12-10T19:47:10.106Z,11.07
2018-12-10T19:49:38.700Z,9.37
2018-12-10T19:52:07.216Z,9.87
2018-12-10T19:54:36.204Z,10.60
2018-12-10T19:57:04.735Z,12.80
2018-12-10T19:59:33.159Z,12.63
2018-12-10T20:02:02.014Z,8.70
2018-12-10T20:04:30.550Z,11.97
2018-12-10T20:07:04.681Z,16.70
2018-12-10T20:09:33.857Z,15.17
2018-12-10T20:12:02.455Z,15.93
2018-12-10T20:14:31.156Z,21.53
2018-12-10T20:17:01.475Z,26.73
2018-12-10T20:19:30.192Z,23.13
2018-12-10T20:21:58.647Z,25.67
2018-12-10T20:24:27.268Z,22.10
2018-12-10T20:26:55.891Z,22.43
2018-12-10T20:29:24.482Z,20.43
2018-12-10T20:31:52.972Z,21.97
2018-12-10T20:34:21.672Z,19.33
2018-12-10T20:36:50.726Z,22.03
2018-12-10T20:39:19.659Z,21.17
2018-12-10T20:41:48.566Z,24.03
2018-12-10T20:44:17.484Z,27.77
2018-12-10T20:46:45.939Z,22.80
2018-12-10T20:49:14.835Z,23.17
2018-12-10T20:51:43.528Z,23.73
2018-12-10T20:54:12.189Z,23.47
2018-12-10T20:56:41.335Z,22.77
2018-12-10T20:59:09.855Z,28.23
2018-12-10T21:01:38.930Z,24.53
2018-12-10T21:04:07.669Z,23.83
2018-12-10T21:06:37.693Z,25.67
2018-12-10T21:09:08.730Z,25.33
2018-12-10T21:11:37.663Z,26.67
2018-12-10T21:14:06.062Z,27.17
2018-12-10T21:16:34.746Z,25.30
2018-12-10T21:19:03.679Z,30.60
2018-12-10T21:21:32.784Z,27.97
2018-12-10T21:24:01.486Z,30.00
2018-12-10T21:26:30.370Z,26.53
2018-12-10T21:28:59.233Z,25.20
2018-12-10T21:31:28.553Z,28.93
2018-12-10T21:33:57.107Z,25.23
2018-12-10T21:36:25.660Z,30.57
2018-12-10T21:38:54.748Z,28.77
2018-12-10T21:41:24.250Z,35.00
2018-12-10T21:43:54.868Z,30.10
2018-12-10T21:46:24.282Z,31.17
2018-12-10T21:48:54.182Z,33.67
2018-12-10T21:51:23.142Z,28.73
2018-12-10T21:53:54.577Z,28.50
2018-12-10T21:56:24.220Z,30.83
2018-12-10T21:58:53.219Z,30.57
2018-12-10T22:01:22.521Z,27.17
2018-12-10T22:03:52.049Z,29.33
2018-12-10T22:06:21.537Z,28.80
2018-12-10T22:15:53.706Z,29.27
2018-12-10T22:18:23.453Z,30.33
2018-12-10T22:20:52.067Z,29.40
2018-12-10T22:23:21.030Z,31.70
2018-12-10T22:25:50.028Z,27.57
2018-12-10T22:28:19.784Z,33.03
2018-12-10T22:30:49.121Z,27.37
2018-12-10T22:33:18.224Z,29.37
2018-12-10T22:36:09.592Z,27.07
2018-12-10T22:38:38.546Z,29.07
2018-12-10T22:41:06.978Z,30.20
2018-12-10T22:43:35.566Z,29.17
2018-12-10T22:46:04.146Z,26.23
2018-12-10T22:48:32.664Z,27.40
2018-12-10T22:51:01.252Z,26.67
2018-12-10T22:53:30.915Z,27.67
2018-12-10T22:55:59.898Z,25.30
2018-12-10T22:58:28.745Z,25.03
2018-12-10T23:00:58.383Z,25.70
2018-12-10T23:03:26.963Z,24.47
2018-12-10T23:05:56.016Z,25.83
2018-12-10T23:08:32.538Z,23.17
2018-12-10T23:11:07.190Z,24.03
2018-12-10T23:13:35.860Z,23.93
2018-12-10T23:16:04.511Z,25.73
2018-12-10T23:18:33.065Z,22.67
2018-12-10T23:21:01.591Z,22.20
2018-12-10T23:23:30.781Z,22.97
2018-12-10T23:25:59.517Z,22.40
2018-12-10T23:28:28.020Z,23.47
2018-12-10T23:30:56.474Z,23.70
2018-12-10T23:33:24.918Z,21.30
2018-12-10T23:35:53.337Z,23.37
2018-12-10T23:38:21.825Z,21.30
2018-12-10T23:40:50.437Z,20.70
2018-12-10T23:43:25.879Z,21.40
2018-12-10T23:45:54.717Z,22.77
2018-12-10T23:48:23.285Z,20.83
2018-12-10T23:50:51.873Z,20.30
2018-12-10T23:53:20.343Z,20.50
2018-12-10T23:55:48.780Z,19.13
2018-12-10T23:58:17.280Z,19.00
